sensor_id;sensor_type;location;lat;lon;timestamp;P1;durP1;ratioP1;P2;durP2;ratioP2
23015;SDS011;11674;52.428;13.584;2023-04-24T00:04:35;8.10;;;3.70;;
23015;SDS011;11674;52.428;13.584;2023-04-24T00:09:42;4.25;;;3.42;;
23015;SDS011;11674;52.428;13.584;2023-04-24T00:14:50;4.50;;;3.42;;
23015;SDS011;11674;52.428;13.584;2023-04-24T00:19:57;4.55;;;3.72;;
23015;SDS011;11674;52.428;13.584;2023-04-24T00:25:04;4.97;;;3.33;;
23015;SDS011;11674;52.428;13.584;2023-04-24T00:30:11;4.50;;;3.42;;
23015;SDS011;11674;52.428;13.584;2023-04-24T00:35:18;4.93;;;3.60;;
23015;SDS011;11674;52.428;13.584;2023-04-24T00:40:25;5.25;;;3.80;;
23015;SDS011;11674;52.428;13.584;2023-04-24T00:45:34;4.40;;;3.75;;
23015;SDS011;11674;52.428;13.584;2023-04-24T00:50:41;4.45;;;3.70;;
23015;SDS011;11674;52.428;13.584;2023-04-24T00:55:49;8.40;;;4.15;;
23015;SDS011;11674;52.428;13.584;2023-04-24T01:00:57;4.45;;;3.90;;
23015;SDS011;11674;52.428;13.584;2023-04-24T01:06:05;5.20;;;3.80;;
23015;SDS011;11674;52.428;13.584;2023-04-24T01:11:12;7.32;;;4.10;;
23015;SDS011;11674;52.428;13.584;2023-04-24T01:16:19;5.78;;;4.03;;
23015;SDS011;11674;52.428;13.584;2023-04-24T01:21:27;6.13;;;4.10;;
23015;SDS011;11674;52.428;13.584;2023-04-24T01:26:37;4.97;;;4.03;;
23015;SDS011;11674;52.428;13.584;2023-04-24T01:31:45;4.72;;;3.83;;
23015;SDS011;11674;52.428;13.584;2023-04-24T01:36:52;5.97;;;4.00;;
23015;SDS011;11674;52.428;13.584;2023-04-24T01:41:59;4.93;;;3.55;;
23015;SDS011;11674;52.428;13.584;2023-04-24T01:47:07;6.13;;;3.55;;
23015;SDS011;11674;52.428;13.584;2023-04-24T01:52:14;6.38;;;4.35;;
23015;SDS011;11674;52.428;13.584;2023-04-24T01:57:21;6.03;;;4.15;;
23015;SDS011;11674;52.428;13.584;2023-04-24T02:02:28;4.82;;;3.95;;
23015;SDS011;11674;52.428;13.584;2023-04-24T02:07:36;6.00;;;4.10;;
23015;SDS011;11674;52.428;13.584;2023-04-24T02:12:43;12.43;;;4.35;;
23015;SDS011;11674;52.428;13.584;2023-04-24T02:17:50;5.38;;;4.03;;
23015;SDS011;11674;52.428;13.584;2023-04-24T02:22:57;5.03;;;3.97;;
23015;SDS011;11674;52.428;13.584;2023-04-24T02:28:04;5.15;;;4.20;;
23015;SDS011;11674;52.428;13.584;2023-04-24T02:33:11;6.15;;;4.47;;
23015;SDS011;11674;52.428;13.584;2023-04-24T02:38:18;4.65;;;3.75;;
23015;SDS011;11674;52.428;13.584;2023-04-24T02:43:25;4.30;;;3.88;;
23015;SDS011;11674;52.428;13.584;2023-04-24T02:48:32;5.10;;;4.13;;
23015;SDS011;11674;52.428;13.584;2023-04-24T02:53:39;5.00;;;4.25;;
23015;SDS011;11674;52.428;13.584;2023-04-24T02:58:46;5.03;;;4.03;;
23015;SDS011;11674;52.428;13.584;2023-04-24T03:03:53;6.05;;;4.47;;
23015;SDS011;11674;52.428;13.584;2023-04-24T03:09:00;5.35;;;4.10;;
23015;SDS011;11674;52.428;13.584;2023-04-24T03:14:07;5.78;;;4.40;;
23015;SDS011;11674;52.428;13.584;2023-04-24T03:19:14;7.55;;;4.70;;
23015;SDS011;11674;52.428;13.584;2023-04-24T03:24:41;5.85;;;4.35;;
23015;SDS011;11674;52.428;13.584;2023-04-24T03:29:51;5.88;;;4.07;;
23015;SDS011;11674;52.428;13.584;2023-04-24T03:35:06;6.32;;;4.22;;
23015;SDS011;11674;52.428;13.584;2023-04-24T03:40:14;5.07;;;4.28;;
23015;SDS011;11674;52.428;13.584;2023-04-24T03:45:21;6.22;;;4.20;;
23015;SDS011;11674;52.428;13.584;2023-04-24T03:50:28;5.53;;;4.25;;
23015;SDS011;11674;52.428;13.584;2023-04-24T03:55:35;8.68;;;4.22;;
23015;SDS011;11674;52.428;13.584;2023-04-24T04:00:43;7.85;;;4.65;;
23015;SDS011;11674;52.428;13.584;2023-04-24T04:06:18;6.47;;;4.90;;
23015;SDS011;11674;52.428;13.584;2023-04-24T04:11:27;7.68;;;5.38;;
23015;SDS011;11674;52.428;13.584;2023-04-24T04:16:34;6.32;;;5.10;;
23015;SDS011;11674;52.428;13.584;2023-04-24T04:21:42;6.53;;;4.80;;
23015;SDS011;11674;52.428;13.584;2023-04-24T04:26:59;5.38;;;4.60;;
23015;SDS011;11674;52.428;13.584;2023-04-24T04:32:12;5.65;;;4.20;;
23015;SDS011;11674;52.428;13.584;2023-04-24T04:37:19;8.10;;;3.83;;
23015;SDS011;11674;52.428;13.584;2023-04-24T04:42:41;4.38;;;3.80;;
23015;SDS011;11674;52.428;13.584;2023-04-24T04:47:48;9.60;;;4.45;;
23015;SDS011;11674;52.428;13.584;2023-04-24T04:52:55;5.65;;;3.92;;
23015;SDS011;11674;52.428;13.584;2023-04-24T04:58:06;5.47;;;4.03;;
23015;SDS011;11674;52.428;13.584;2023-04-24T05:03:13;6.05;;;4.00;;
23015;SDS011;11674;52.428;13.584;2023-04-24T05:08:21;9.35;;;4.53;;
23015;SDS011;11674;52.428;13.584;2023-04-24T05:13:29;7.00;;;4.93;;
23015;SDS011;11674;52.428;13.584;2023-04-24T05:18:39;6.30;;;3.95;;
23015;SDS011;11674;52.428;13.584;2023-04-24T05:23:49;12.32;;;4.05;;
23015;SDS011;11674;52.428;13.584;2023-04-24T05:29:10;12.90;;;4.57;;
23015;SDS011;11674;52.428;13.584;2023-04-24T05:34:17;9.63;;;4.43;;
23015;SDS011;11674;52.428;13.584;2023-04-24T05:39:28;5.10;;;3.35;;
23015;SDS011;11674;52.428;13.584;2023-04-24T05:44:35;7.72;;;3.00;;
23015;SDS011;11674;52.428;13.584;2023-04-24T05:49:42;3.28;;;2.70;;
23015;SDS011;11674;52.428;13.584;2023-04-24T05:54:49;4.18;;;2.80;;
23015;SDS011;11674;52.428;13.584;2023-04-24T06:00:06;4.53;;;2.63;;
23015;SDS011;11674;52.428;13.584;2023-04-24T06:05:23;4.57;;;2.17;;
23015;SDS011;11674;52.428;13.584;2023-04-24T06:10:30;2.10;;;1.90;;
23015;SDS011;11674;52.428;13.584;2023-04-24T06:15:38;3.05;;;1.77;;
23015;SDS011;11674;52.428;13.584;2023-04-24T06:20:50;1.67;;;1.42;;
23015;SDS011;11674;52.428;13.584;2023-04-24T06:25:58;2.13;;;1.42;;
23015;SDS011;11674;52.428;13.584;2023-04-24T06:31:06;2.72;;;1.73;;
23015;SDS011;11674;52.428;13.584;2023-04-24T06:36:12;1.65;;;1.33;;
23015;SDS011;11674;52.428;13.584;2023-04-24T06:41:19;3.00;;;1.50;;
23015;SDS011;11674;52.428;13.584;2023-04-24T06:46:26;2.25;;;1.48;;
23015;SDS011;11674;52.428;13.584;2023-04-24T06:51:33;3.15;;;1.70;;
23015;SDS011;11674;52.428;13.584;2023-04-24T06:56:40;3.22;;;1.23;;
23015;SDS011;11674;52.428;13.584;2023-04-24T07:01:47;3.00;;;1.30;;
23015;SDS011;11674;52.428;13.584;2023-04-24T07:06:54;1.38;;;1.10;;
23015;SDS011;11674;52.428;13.584;2023-04-24T07:12:01;1.95;;;0.98;;
23015;SDS011;11674;52.428;13.584;2023-04-24T07:17:08;2.28;;;1.20;;
23015;SDS011;11674;52.428;13.584;2023-04-24T07:22:15;3.60;;;1.25;;
23015;SDS011;11674;52.428;13.584;2023-04-24T07:27:22;1.83;;;1.00;;
23015;SDS011;11674;52.428;13.584;2023-04-24T07:32:29;1.55;;;0.93;;
23015;SDS011;11674;52.428;13.584;2023-04-24T07:37:36;1.60;;;0.80;;
23015;SDS011;11674;52.428;13.584;2023-04-24T07:42:43;1.00;;;0.90;;
23015;SDS011;11674;52.428;13.584;2023-04-24T07:47:50;6.88;;;2.72;;
23015;SDS011;11674;52.428;13.584;2023-04-24T07:52:57;1.95;;;1.15;;
23015;SDS011;11674;52.428;13.584;2023-04-24T07:58:04;6.00;;;1.00;;
23015;SDS011;11674;52.428;13.584;2023-04-24T08:03:11;1.52;;;1.05;;
23015;SDS011;11674;52.428;13.584;2023-04-24T08:08:20;5.10;;;2.13;;
23015;SDS011;11674;52.428;13.584;2023-04-24T08:13:28;5.45;;;1.98;;
23015;SDS011;11674;52.428;13.584;2023-04-24T08:18:35;2.33;;;0.75;;
23015;SDS011;11674;52.428;13.584;2023-04-24T08:23:42;1.95;;;1.00;;
23015;SDS011;11674;52.428;13.584;2023-04-24T08:28:49;3.53;;;1.67;;
23015;SDS011;11674;52.428;13.584;2023-04-24T08:33:56;1.65;;;1.15;;
23015;SDS011;11674;52.428;13.584;2023-04-24T08:39:03;1.02;;;0.73;;
23015;SDS011;11674;52.428;13.584;2023-04-24T08:44:10;5.25;;;1.95;;
23015;SDS011;11674;52.428;13.584;2023-04-24T08:49:17;0.75;;;0.73;;
23015;SDS011;11674;52.428;13.584;2023-04-24T08:54:24;3.63;;;0.70;;
23015;SDS011;11674;52.428;13.584;2023-04-24T08:59:32;1.90;;;0.73;;
23015;SDS011;11674;52.428;13.584;2023-04-24T09:04:40;2.95;;;0.60;;
23015;SDS011;11674;52.428;13.584;2023-04-24T09:09:50;2.50;;;0.57;;
23015;SDS011;11674;52.428;13.584;2023-04-24T09:14:57;1.10;;;0.52;;
23015;SDS011;11674;52.428;13.584;2023-04-24T09:20:05;1.00;;;0.90;;
23015;SDS011;11674;52.428;13.584;2023-04-24T09:25:12;2.65;;;0.93;;
23015;SDS011;11674;52.428;13.584;2023-04-24T09:30:22;0.65;;;0.55;;
23015;SDS011;11674;52.428;13.584;2023-04-24T09:35:29;4.45;;;0.88;;
23015;SDS011;11674;52.428;13.584;2023-04-24T09:40:38;0.70;;;0.65;;
23015;SDS011;11674;52.428;13.584;2023-04-24T09:45:46;1.23;;;0.80;;
23015;SDS011;11674;52.428;13.584;2023-04-24T09:50:53;1.00;;;0.90;;
23015;SDS011;11674;52.428;13.584;2023-04-24T09:56:07;0.88;;;0.70;;
23015;SDS011;11674;52.428;13.584;2023-04-24T10:01:15;1.05;;;0.70;;
23015;SDS011;11674;52.428;13.584;2023-04-24T10:06:22;2.22;;;0.70;;
23015;SDS011;11674;52.428;13.584;2023-04-24T10:11:29;2.90;;;1.00;;
23015;SDS011;11674;52.428;13.584;2023-04-24T10:16:36;4.80;;;2.78;;
23015;SDS011;11674;52.428;13.584;2023-04-24T10:21:44;3.63;;;2.03;;
23015;SDS011;11674;52.428;13.584;2023-04-24T10:26:52;4.10;;;2.22;;
23015;SDS011;11674;52.428;13.584;2023-04-24T10:31:59;1.70;;;0.80;;
23015;SDS011;11674;52.428;13.584;2023-04-24T10:37:06;1.65;;;0.82;;
23015;SDS011;11674;52.428;13.584;2023-04-24T10:42:14;7.82;;;4.13;;
23015;SDS011;11674;52.428;13.584;2023-04-24T10:47:21;6.57;;;2.00;;
23015;SDS011;11674;52.428;13.584;2023-04-24T10:52:43;2.33;;;1.17;;
23015;SDS011;11674;52.428;13.584;2023-04-24T10:58:03;2.83;;;1.10;;
23015;SDS011;11674;52.428;13.584;2023-04-24T11:03:26;2.67;;;0.80;;
23015;SDS011;11674;52.428;13.584;2023-04-24T11:08:44;2.08;;;0.90;;
23015;SDS011;11674;52.428;13.584;2023-04-24T11:19:06;1.33;;;0.85;;
23015;SDS011;11674;52.428;13.584;2023-04-24T11:40:13;2.03;;;0.90;;
23015;SDS011;11674;52.428;13.584;2023-04-24T11:45:25;0.93;;;0.85;;
23015;SDS011;11674;52.428;13.584;2023-04-24T11:50:35;4.22;;;0.90;;
23015;SDS011;11674;52.428;13.584;2023-04-24T11:55:42;3.85;;;1.00;;
23015;SDS011;11674;52.428;13.584;2023-04-24T12:00:55;1.42;;;1.17;;
23015;SDS011;11674;52.428;13.584;2023-04-24T12:06:10;1.90;;;1.15;;
23015;SDS011;11674;52.428;13.584;2023-04-24T12:11:17;1.25;;;1.10;;
23015;SDS011;11674;52.428;13.584;2023-04-24T12:16:25;3.88;;;1.35;;
23015;SDS011;11674;52.428;13.584;2023-04-24T12:21:32;3.42;;;1.20;;
23015;SDS011;11674;52.428;13.584;2023-04-24T12:26:42;2.03;;;1.27;;
23015;SDS011;11674;52.428;13.584;2023-04-24T12:31:50;1.38;;;1.00;;
23015;SDS011;11674;52.428;13.584;2023-04-24T12:37:08;0.82;;;0.77;;
23015;SDS011;11674;52.428;13.584;2023-04-24T12:42:25;1.83;;;0.80;;
23015;SDS011;11674;52.428;13.584;2023-04-24T12:47:32;1.23;;;0.90;;
23015;SDS011;11674;52.428;13.584;2023-04-24T12:52:40;3.80;;;0.80;;
23015;SDS011;11674;52.428;13.584;2023-04-24T12:57:48;0.82;;;0.70;;
23015;SDS011;11674;52.428;13.584;2023-04-24T13:02:55;1.73;;;0.70;;
23015;SDS011;11674;52.428;13.584;2023-04-24T13:08:02;0.80;;;0.68;;
23015;SDS011;11674;52.428;13.584;2023-04-24T13:13:09;1.73;;;0.80;;
23015;SDS011;11674;52.428;13.584;2023-04-24T13:18:16;3.65;;;0.80;;
23015;SDS011;11674;52.428;13.584;2023-04-24T13:23:23;4.32;;;0.95;;
23015;SDS011;11674;52.428;13.584;2023-04-24T13:28:30;0.50;;;0.50;;
23015;SDS011;11674;52.428;13.584;2023-04-24T13:33:37;5.80;;;0.60;;
23015;SDS011;11674;52.428;13.584;2023-04-24T13:38:44;2.42;;;0.70;;
23015;SDS011;11674;52.428;13.584;2023-04-24T13:43:51;2.13;;;0.70;;
23015;SDS011;11674;52.428;13.584;2023-04-24T13:48:58;1.80;;;0.85;;
23015;SDS011;11674;52.428;13.584;2023-04-24T13:54:05;1.88;;;0.80;;
23015;SDS011;11674;52.428;13.584;2023-04-24T13:59:12;2.28;;;0.95;;
23015;SDS011;11674;52.428;13.584;2023-04-24T14:04:19;6.38;;;0.73;;
23015;SDS011;11674;52.428;13.584;2023-04-24T14:09:26;1.30;;;0.60;;
23015;SDS011;11674;52.428;13.584;2023-04-24T14:14:33;2.10;;;0.60;;
23015;SDS011;11674;52.428;13.584;2023-04-24T14:19:40;2.45;;;0.93;;
23015;SDS011;11674;52.428;13.584;2023-04-24T14:24:47;4.35;;;0.88;;
23015;SDS011;11674;52.428;13.584;2023-04-24T14:29:54;1.15;;;0.90;;
23015;SDS011;11674;52.428;13.584;2023-04-24T14:35:01;5.80;;;2.30;;
23015;SDS011;11674;52.428;13.584;2023-04-24T14:40:08;0.63;;;0.60;;
23015;SDS011;11674;52.428;13.584;2023-04-24T14:45:16;1.40;;;0.70;;
23015;SDS011;11674;52.428;13.584;2023-04-24T14:50:24;4.10;;;0.80;;
23015;SDS011;11674;52.428;13.584;2023-04-24T14:55:31;0.80;;;0.70;;
23015;SDS011;11674;52.428;13.584;2023-04-24T15:00:38;5.20;;;0.60;;
23015;SDS011;11674;52.428;13.584;2023-04-24T15:05:45;1.40;;;0.60;;
23015;SDS011;11674;52.428;13.584;2023-04-24T15:10:52;0.90;;;0.77;;
23015;SDS011;11674;52.428;13.584;2023-04-24T15:15:59;1.10;;;0.60;;
23015;SDS011;11674;52.428;13.584;2023-04-24T15:21:06;1.10;;;1.00;;
23015;SDS011;11674;52.428;13.584;2023-04-24T15:26:13;3.08;;;0.85;;
23015;SDS011;11674;52.428;13.584;2023-04-24T15:31:20;1.08;;;0.80;;
23015;SDS011;11674;52.428;13.584;2023-04-24T15:36:27;1.52;;;0.90;;
23015;SDS011;11674;52.428;13.584;2023-04-24T15:41:34;0.77;;;0.73;;
23015;SDS011;11674;52.428;13.584;2023-04-24T15:46:41;1.50;;;1.05;;
23015;SDS011;11674;52.428;13.584;2023-04-24T15:51:48;0.90;;;0.80;;
23015;SDS011;11674;52.428;13.584;2023-04-24T15:56:55;2.60;;;1.10;;
23015;SDS011;11674;52.428;13.584;2023-04-24T16:02:02;2.05;;;0.90;;
23015;SDS011;11674;52.428;13.584;2023-04-24T16:07:09;1.25;;;0.90;;
23015;SDS011;11674;52.428;13.584;2023-04-24T16:12:16;0.88;;;0.80;;
23015;SDS011;11674;52.428;13.584;2023-04-24T16:17:23;3.80;;;1.00;;
23015;SDS011;11674;52.428;13.584;2023-04-24T16:22:30;1.42;;;0.80;;
23015;SDS011;11674;52.428;13.584;2023-04-24T16:27:37;1.58;;;0.90;;
23015;SDS011;11674;52.428;13.584;2023-04-24T16:32:51;3.25;;;0.88;;
23015;SDS011;11674;52.428;13.584;2023-04-24T16:37:58;1.50;;;0.75;;
23015;SDS011;11674;52.428;13.584;2023-04-24T16:43:05;0.90;;;0.80;;
23015;SDS011;11674;52.428;13.584;2023-04-24T16:48:12;1.00;;;0.80;;
23015;SDS011;11674;52.428;13.584;2023-04-24T16:53:19;1.02;;;0.85;;
23015;SDS011;11674;52.428;13.584;2023-04-24T16:58:26;3.13;;;0.90;;
23015;SDS011;11674;52.428;13.584;2023-04-24T17:03:33;0.52;;;0.50;;
23015;SDS011;11674;52.428;13.584;2023-04-24T17:08:40;1.45;;;0.63;;
23015;SDS011;11674;52.428;13.584;2023-04-24T17:13:47;1.00;;;0.90;;
23015;SDS011;11674;52.428;13.584;2023-04-24T17:18:54;3.90;;;1.00;;
23015;SDS011;11674;52.428;13.584;2023-04-24T17:24:01;2.80;;;0.85;;
23015;SDS011;11674;52.428;13.584;2023-04-24T17:29:08;1.65;;;0.60;;
23015;SDS011;11674;52.428;13.584;2023-04-24T17:34:15;1.88;;;0.90;;
23015;SDS011;11674;52.428;13.584;2023-04-24T17:39:22;1.42;;;0.85;;
23015;SDS011;11674;52.428;13.584;2023-04-24T17:44:29;1.35;;;0.90;;
23015;SDS011;11674;52.428;13.584;2023-04-24T17:49:36;0.57;;;0.50;;
23015;SDS011;11674;52.428;13.584;2023-04-24T17:54:43;0.70;;;0.70;;
23015;SDS011;11674;52.428;13.584;2023-04-24T17:59:50;1.10;;;0.80;;
23015;SDS011;11674;52.428;13.584;2023-04-24T18:04:57;3.60;;;0.93;;
23015;SDS011;11674;52.428;13.584;2023-04-24T18:10:04;1.02;;;0.70;;
23015;SDS011;11674;52.428;13.584;2023-04-24T18:15:11;1.70;;;1.10;;
23015;SDS011;11674;52.428;13.584;2023-04-24T18:20:18;1.02;;;0.90;;
23015;SDS011;11674;52.428;13.584;2023-04-24T18:25:25;1.15;;;1.05;;
23015;SDS011;11674;52.428;13.584;2023-04-24T18:30:32;1.10;;;1.00;;
23015;SDS011;11674;52.428;13.584;2023-04-24T18:35:39;1.15;;;0.80;;
23015;SDS011;11674;52.428;13.584;2023-04-24T18:40:46;1.30;;;0.90;;
23015;SDS011;11674;52.428;13.584;2023-04-24T18:45:53;0.80;;;0.80;;
23015;SDS011;11674;52.428;13.584;2023-04-24T18:51:00;1.95;;;0.50;;
23015;SDS011;11674;52.428;13.584;2023-04-24T18:56:07;0.30;;;0.30;;
23015;SDS011;11674;52.428;13.584;2023-04-24T19:01:14;0.30;;;0.30;;
23015;SDS011;11674;52.428;13.584;2023-04-24T19:06:21;0.60;;;0.60;;
23015;SDS011;11674;52.428;13.584;2023-04-24T19:11:28;2.47;;;0.90;;
23015;SDS011;11674;52.428;13.584;2023-04-24T19:16:35;0.75;;;0.50;;
23015;SDS011;11674;52.428;13.584;2023-04-24T19:21:43;1.13;;;0.50;;
23015;SDS011;11674;52.428;13.584;2023-04-24T19:26:49;1.50;;;0.68;;
23015;SDS011;11674;52.428;13.584;2023-04-24T19:31:56;0.50;;;0.50;;
23015;SDS011;11674;52.428;13.584;2023-04-24T19:37:03;1.10;;;0.80;;
23015;SDS011;11674;52.428;13.584;2023-04-24T19:42:10;0.70;;;0.70;;
23015;SDS011;11674;52.428;13.584;2023-04-24T19:47:17;1.63;;;0.68;;
23015;SDS011;11674;52.428;13.584;2023-04-24T19:52:24;3.58;;;0.88;;
23015;SDS011;11674;52.428;13.584;2023-04-24T19:57:31;0.90;;;0.85;;
23015;SDS011;11674;52.428;13.584;2023-04-24T20:02:38;1.60;;;1.08;;
23015;SDS011;11674;52.428;13.584;2023-04-24T20:07:45;1.75;;;1.00;;
23015;SDS011;11674;52.428;13.584;2023-04-24T20:12:53;2.03;;;1.13;;
23015;SDS011;11674;52.428;13.584;2023-04-24T20:18:00;2.22;;;1.30;;
23015;SDS011;11674;52.428;13.584;2023-04-24T20:23:07;1.70;;;1.25;;
23015;SDS011;11674;52.428;13.584;2023-04-24T20:28:14;1.90;;;1.40;;
23015;SDS011;11674;52.428;13.584;2023-04-24T20:33:21;3.40;;;1.85;;
23015;SDS011;11674;52.428;13.584;2023-04-24T20:38:28;2.88;;;1.50;;
23015;SDS011;11674;52.428;13.584;2023-04-24T20:43:35;1.60;;;1.15;;
23015;SDS011;11674;52.428;13.584;2023-04-24T20:48:42;3.85;;;1.95;;
23015;SDS011;11674;52.428;13.584;2023-04-24T20:53:59;2.67;;;1.70;;
23015;SDS011;11674;52.428;13.584;2023-04-24T20:59:06;2.33;;;1.40;;
23015;SDS011;11674;52.428;13.584;2023-04-24T21:04:13;1.95;;;1.60;;
23015;SDS011;11674;52.428;13.584;2023-04-24T21:09:20;1.98;;;1.60;;
23015;SDS011;11674;52.428;13.584;2023-04-24T21:14:27;3.15;;;1.52;;
23015;SDS011;11674;52.428;13.584;2023-04-24T21:19:34;2.63;;;1.70;;
23015;SDS011;11674;52.428;13.584;2023-04-24T21:24:41;3.00;;;1.45;;
23015;SDS011;11674;52.428;13.584;2023-04-24T21:29:48;4.72;;;1.95;;
23015;SDS011;11674;52.428;13.584;2023-04-24T21:34:55;3.80;;;1.70;;
23015;SDS011;11674;52.428;13.584;2023-04-24T21:40:02;2.78;;;1.90;;
23015;SDS011;11674;52.428;13.584;2023-04-24T21:45:10;4.90;;;1.85;;
23015;SDS011;11674;52.428;13.584;2023-04-24T21:50:23;4.55;;;2.00;;
23015;SDS011;11674;52.428;13.584;2023-04-24T21:55:30;3.08;;;1.88;;
23015;SDS011;11674;52.428;13.584;2023-04-24T22:00:37;5.10;;;2.08;;
23015;SDS011;11674;52.428;13.584;2023-04-24T22:05:44;3.53;;;2.10;;
23015;SDS011;11674;52.428;13.584;2023-04-24T22:10:51;4.13;;;2.22;;
23015;SDS011;11674;52.428;13.584;2023-04-24T22:15:58;5.53;;;2.45;;
23015;SDS011;11674;52.428;13.584;2023-04-24T22:21:05;5.35;;;2.22;;
23015;SDS011;11674;52.428;13.584;2023-04-24T22:26:12;5.03;;;2.42;;
23015;SDS011;11674;52.428;13.584;2023-04-24T22:31:19;4.28;;;2.75;;
23015;SDS011;11674;52.428;13.584;2023-04-24T22:36:26;2.90;;;2.55;;
23015;SDS011;11674;52.428;13.584;2023-04-24T22:41:33;6.38;;;3.00;;
23015;SDS011;11674;52.428;13.584;2023-04-24T22:46:40;5.53;;;2.13;;
23015;SDS011;11674;52.428;13.584;2023-04-24T22:51:47;6.28;;;2.80;;
23015;SDS011;11674;52.428;13.584;2023-04-24T22:56:54;5.03;;;2.70;;
23015;SDS011;11674;52.428;13.584;2023-04-24T23:02:01;4.68;;;2.38;;
23015;SDS011;11674;52.428;13.584;2023-04-24T23:07:08;2.78;;;2.15;;
23015;SDS011;11674;52.428;13.584;2023-04-24T23:12:15;4.20;;;2.80;;
23015;SDS011;11674;52.428;13.584;2023-04-24T23:17:22;4.68;;;2.40;;
23015;SDS011;11674;52.428;13.584;2023-04-24T23:22:29;3.40;;;2.45;;
23015;SDS011;11674;52.428;13.584;2023-04-24T23:27:36;3.97;;;2.05;;
23015;SDS011;11674;52.428;13.584;2023-04-24T23:32:43;5.15;;;2.70;;
23015;SDS011;11674;52.428;13.584;2023-04-24T23:37:50;3.35;;;2.33;;
23015;SDS011;11674;52.428;13.584;2023-04-24T23:42:57;5.53;;;2.75;;
23015;SDS011;11674;52.428;13.584;2023-04-24T23:48:04;5.25;;;2.53;;
23015;SDS011;11674;52.428;13.584;2023-04-24T23:53:11;4.72;;;2.28;;
23015;SDS011;11674;52.428;13.584;2023-04-24T23:58:18;3.38;;;1.90;;
